Terminal Aerodrome Forecast
Issued by NWS

Home | Current Version | Previous Version | Text Only | Print | Product List | Glossary On
Versions: 1 2 3 4 5 6 7 8 9 10 11 12 13 14 15 16 17 18 19 20
926
FTUS43 KJKL 141002 AAA
TAFSME
TAF AMD
KSME 141002Z 1410/1506 VRB03KT P6SM BKN025
     FM141600 VRB05KT P6SM SCT080=

USA.gov is the U.S. government's official web portal to all federal, state and local government web resources and services.